Time;durP1;ratioP1;P1;durP2;ratioP2;P2;SDS_P1;SDS_P2;PMS_P1;PMS_P2;Temp;Humidity;BMP_temperature;BMP_pressure;BME280_temperature;BME280_humidity;BME280_pressure;Samples;Min_cycle;Max_cycle;Signal;HPM_P1;HPM_P2
2021/06/04 00:01:17;;;;;;;;;5.60;5.60;;;;;32.54;51.07;98607.66;4915911;29;8973;-72
2021/06/04 00:03:46;;;;;;;;;4.20;4.20;;;;;32.54;50.70;98609.59;4915961;29;8860;-72
2021/06/04 00:06:16;;;;;;;;;6.00;6.00;;;;;32.54;50.78;98607.66;4915889;29;8870;-72
2021/06/04 00:08:48;;;;;;;;;4.60;4.60;;;;;32.51;50.58;98600.28;4916052;29;8855;-72
2021/06/04 00:11:23;;;;;;;;;4.40;4.40;;;;;32.59;50.32;98601.72;4914742;29;8859;-73
2021/06/04 00:13:56;;;;;;;;;5.40;5.40;;;;;32.59;50.20;98611.84;4915914;29;8878;-73
2021/06/04 00:16:30;;;;;;;;;4.20;4.20;;;;;32.59;49.93;98606.41;4914759;29;8962;-73
2021/06/04 00:19:03;;;;;;;;;5.40;5.40;;;;;32.63;50.08;98623.50;4915779;29;8870;-73
2021/06/04 00:21:37;;;;;;;;;5.00;5.00;;;;;32.66;49.76;98630.84;4914612;29;8854;-73
2021/06/04 00:24:08;;;;;;;;;4.00;4.00;;;;;32.62;49.58;98630.16;4920471;29;8846;-73
2021/06/04 00:26:39;;;;;;;;;4.80;4.80;;;;;32.68;49.48;98634.72;4921934;29;8874;-73
2021/06/04 00:29:09;;;;;;;;;4.80;4.80;;;;;32.65;49.23;98632.03;4922092;29;8855;-73
2021/06/04 00:31:38;;;;;;;;;4.60;4.60;;;;;32.64;48.86;98623.06;4922034;29;8873;-73
2021/06/04 00:34:08;;;;;;;;;6.20;6.20;;;;;32.71;49.10;98630.38;4921953;29;8855;-73
2021/06/04 00:36:36;;;;;;;;;4.80;4.80;;;;;32.55;48.75;98611.94;4922241;29;8872;-73
2021/06/04 00:39:08;;;;;;;;;6.80;6.80;;;;;32.72;48.80;98632.69;4922143;29;8862;-73
2021/06/04 00:41:53;;;;;;;;;7.00;7.00;;;;;32.71;49.13;98636.59;4921962;29;8843;-73
2021/06/04 00:44:23;;;;;;;;;6.20;6.20;;;;;32.75;48.07;98639.28;4922385;29;8893;-73
2021/06/04 00:46:51;;;;;;;;;4.00;4.00;;;;;32.77;47.78;98641.63;4921847;29;9624;-73
2021/06/04 00:49:23;;;;;;;;;5.60;5.60;;;;;32.81;47.49;98639.59;4921865;29;8854;-73
2021/06/04 00:52:06;;;;;;;;;5.00;5.00;;;;;32.83;47.30;98637.22;4921823;29;8909;-73
2021/06/04 00:54:35;;;;;;;;;5.00;5.00;;;;;32.84;47.19;98639.53;4921813;29;8866;-73
2021/06/04 00:57:05;;;;;;;;;5.40;5.40;;;;;32.79;47.00;98631.03;4921804;29;8871;-73
2021/06/04 00:59:37;;;;;;;;;5.00;5.00;;;;;32.85;46.99;98643.81;4921597;29;9636;-73
2021/06/04 01:02:10;;;;;;;;;6.60;6.60;;;;;32.86;47.67;98642.63;4920674;29;8870;-72
2021/06/04 01:04:39;;;;;;;;;6.00;6.00;;;;;32.90;47.99;98642.53;4920050;29;9613;-72
2021/06/04 01:07:32;;;;;;;;;6.40;6.40;;;;;32.92;47.76;98649.13;4920382;29;8866;-73
2021/06/04 01:10:33;;;;;;;;;3.80;3.80;;;;;32.95;48.59;98655.72;4919832;29;8866;-73
2021/06/04 01:13:11;;;;;;;;;4.60;4.60;;;;;32.96;48.23;98657.25;4920532;29;8875;-73
2021/06/04 01:16:03;;;;;;;;;5.00;5.00;;;;;32.98;47.97;98655.66;4920055;29;8863;-73
2021/06/04 01:18:52;;;;;;;;;4.00;4.00;;;;;33.00;48.61;98660.72;4919861;29;9559;-74
2021/06/04 01:21:36;;;;;;;;;4.20;4.20;;;;;33.01;47.93;98667.72;4919493;29;8894;-73
2021/06/04 01:24:30;;;;;;;;;5.20;4.00;;;;;33.02;48.40;98658.31;4920400;29;8941;-73
2021/06/04 01:27:06;;;;;;;;;3.80;3.80;;;;;33.03;48.25;98657.91;4920490;29;9625;-73
2021/06/04 01:29:40;;;;;;;;;4.20;4.20;;;;;33.04;48.00;98662.19;4919838;29;8881;-75
2021/06/04 01:32:23;;;;;;;;;4.80;4.80;;;;;33.04;47.72;98653.97;4905521;29;8991;-73
2021/06/04 01:35:09;;;;;;;;;2.60;2.60;;;;;33.07;47.73;98650.41;4912894;29;8882;-73
2021/06/04 01:37:40;;;;;;;;;3.60;3.60;;;;;33.08;48.66;98651.94;4913193;29;8839;-73
2021/06/04 01:40:42;;;;;;;;;3.00;3.00;;;;;33.05;48.29;98644.59;4911636;29;8980;-72
2021/06/04 01:43:31;;;;;;;;;3.80;3.80;;;;;33.12;47.56;98654.63;4913069;29;8867;-73
2021/06/04 01:46:23;;;;;;;;;2.20;2.20;;;;;33.16;47.38;98665.47;4916165;29;8925;-74
2021/06/04 01:48:53;;;;;;;;;2.60;2.60;;;;;33.14;47.00;98652.25;4916195;29;8865;-73
2021/06/04 01:51:36;;;;;;;;;5.00;5.00;;;;;33.06;48.32;98637.16;4915785;29;8886;-73
2021/06/04 01:54:13;;;;;;;;;4.60;4.60;;;;;33.22;48.38;98663.81;4914831;29;8989;-73
2021/06/04 01:56:47;;;;;;;;;4.20;4.20;;;;;33.21;48.48;98673.19;4914976;29;8863;-72
2021/06/04 01:59:34;;;;;;;;;4.00;4.00;;;;;33.24;48.08;98664.94;4914254;29;8855;-73
2021/06/04 02:02:05;;;;;;;;;6.60;6.60;;;;;33.30;48.02;98670.69;4912852;29;8868;-73
2021/06/04 02:04:41;;;;;;;;;5.60;5.60;;;;;33.30;48.49;98673.44;4915592;29;9608;-74
2021/06/04 02:07:14;;;;;;;;;3.80;3.80;;;;;33.30;48.17;98671.47;4914526;29;8870;-73
2021/06/04 02:09:43;;;;;;;;;4.80;4.80;;;;;33.24;48.73;98666.88;4915969;29;8871;-73
2021/06/04 02:12:12;;;;;;;;;4.00;4.00;;;;;33.32;48.07;98676.53;4916029;29;8876;-76
2021/06/04 02:15:02;;;;;;;;;4.60;4.60;;;;;33.34;48.83;98677.66;4915831;29;8977;-76
2021/06/04 02:17:52;;;;;;;;;1.40;1.40;;;;;33.37;48.62;98670.56;4908430;29;8870;-74
2021/06/04 02:20:38;;;;;;;;;5.00;5.00;;;;;33.42;48.74;98677.50;4913579;29;8866;-73
2021/06/04 02:23:46;;;;;;;;;4.00;4.00;;;;;33.25;48.05;98646.56;4911811;29;8871;-75
2021/06/04 02:26:25;;;;;;;;;3.00;3.00;;;;;33.53;48.15;98673.34;4914064;29;9690;-77
2021/06/04 02:29:17;;;;;;;;;5.40;5.40;;;;;33.57;48.15;98676.78;4912755;29;8884;-76
2021/06/04 02:32:02;;;;;;;;;5.00;5.00;;;;;33.56;48.40;98667.03;4911777;29;8874;-74
2021/06/04 02:34:45;;;;;;;;;4.00;4.00;;;;;33.60;48.08;98667.75;4913857;29;8847;-76
2021/06/04 02:37:22;;;;;;;;;4.20;4.20;;;;;33.64;47.47;98664.94;4914353;29;8870;-74
2021/06/04 02:40:00;;;;;;;;;4.80;4.80;;;;;33.71;47.68;98664.78;4915603;29;8883;-76
2021/06/04 02:42:37;;;;;;;;;5.80;5.20;;;;;33.67;47.66;98656.66;4907990;29;8880;-76
2021/06/04 02:45:34;;;;;;;;;4.60;4.60;;;;;33.75;47.75;98660.00;4903183;29;8871;-76
2021/06/04 02:48:10;;;;;;;;;6.40;6.40;;;;;33.77;48.23;98665.03;4907128;29;8839;-77
2021/06/04 02:50:49;;;;;;;;;4.80;4.80;;;;;33.77;47.59;98657.59;4914526;29;8875;-75
2021/06/04 02:53:33;;;;;;;;;4.40;4.40;;;;;33.79;46.87;98662.66;4913021;29;8882;-75
2021/06/04 02:56:30;;;;;;;;;4.20;2.80;;;;;33.85;47.43;98667.22;4904073;29;8861;-75
2021/06/04 02:59:16;;;;;;;;;4.80;4.80;;;;;33.89;47.29;98658.91;4906041;29;8914;-75
2021/06/04 03:01:56;;;;;;;;;4.40;4.40;;;;;33.95;46.85;98654.47;4905585;29;8859;-76
2021/06/04 03:04:28;;;;;;;;;5.00;5.00;;;;;34.01;47.00;98658.25;4906316;29;8874;-74
2021/06/04 03:07:32;;;;;;;;;5.00;5.00;;;;;33.98;46.68;98640.72;4913267;29;8827;-74
2021/06/04 03:10:08;;;;;;;;;5.80;5.80;;;;;34.17;47.08;98660.22;4914022;29;8893;-76
2021/06/04 03:12:44;;;;;;;;;6.00;6.00;;;;;34.20;47.39;98643.72;4913135;29;8962;-75
2021/06/04 03:15:31;;;;;;;;;5.00;5.00;;;;;34.30;46.84;98639.97;4911304;29;8925;-75
2021/06/04 03:18:02;;;;;;;;;4.00;4.00;;;;;34.34;46.37;98635.19;4910083;29;8942;-73
2021/06/04 03:20:35;;;;;;;;;4.40;4.40;;;;;34.39;46.12;98639.38;4913145;29;8875;-73
2021/06/04 03:23:08;;;;;;;;;4.60;4.60;;;;;34.45;46.21;98636.91;4909969;29;8894;-73
2021/06/04 03:25:47;;;;;;;;;6.00;6.00;;;;;34.48;46.31;98636.03;4910902;29;8938;-75
2021/06/04 03:28:22;;;;;;;;;4.80;4.80;;;;;34.49;46.41;98616.44;4912545;29;8887;-75
2021/06/04 03:30:51;;;;;;;;;5.80;5.80;;;;;34.53;46.55;98619.84;4912868;29;8862;-72
2021/06/04 03:33:32;;;;;;;;;4.00;4.00;;;;;34.56;46.75;98618.22;4911399;29;8867;-72
2021/06/04 03:36:07;;;;;;;;;4.00;4.00;;;;;34.57;46.29;98617.78;4910048;29;9009;-73
2021/06/04 03:38:36;;;;;;;;;4.80;4.80;;;;;34.62;45.41;98620.00;4912477;29;8855;-72
2021/06/04 03:41:09;;;;;;;;;5.40;5.40;;;;;34.63;46.13;98605.09;4913674;29;8934;-74
2021/06/04 03:43:39;;;;;;;;;6.40;6.40;;;;;34.67;46.10;98599.53;4914074;29;8882;-72
2021/06/04 03:46:08;;;;;;;;;4.80;4.80;;;;;34.69;46.06;98602.59;4910262;29;8861;-71
2021/06/04 03:48:37;;;;;;;;;3.80;3.80;;;;;34.78;46.20;98600.00;4913247;29;8851;-75
2021/06/04 03:51:10;;;;;;;;;4.00;4.00;;;;;34.82;45.99;98587.00;4914067;29;8914;-73
2021/06/04 03:53:39;;;;;;;;;3.60;3.60;;;;;34.89;45.79;98600.53;4913720;29;8843;-71
2021/06/04 03:56:11;;;;;;;;;5.20;5.20;;;;;34.95;45.85;98593.31;4912552;29;8863;-73
2021/06/04 03:58:41;;;;;;;;;4.00;4.00;;;;;34.96;45.82;98583.13;4913383;29;8910;-73
2021/06/04 04:01:17;;;;;;;;;4.80;4.80;;;;;35.05;45.68;98586.00;4913878;29;9609;-73
2021/06/04 04:03:45;;;;;;;;;5.00;5.00;;;;;34.94;45.42;98564.34;4911438;29;8874;-73
2021/06/04 04:06:14;;;;;;;;;4.80;4.80;;;;;35.06;45.51;98576.56;4913551;29;8851;-72
2021/06/04 04:08:44;;;;;;;;;5.20;5.20;;;;;35.16;44.35;98586.41;4914963;29;8859;-73
2021/06/04 04:11:14;;;;;;;;;4.80;4.80;;;;;35.24;45.20;98578.75;4914273;29;9014;-73
2021/06/04 04:13:43;;;;;;;;;3.00;3.00;;;;;35.32;44.52;98588.34;4914036;29;8862;-72
2021/06/04 04:16:13;;;;;;;;;4.80;4.80;;;;;35.38;44.89;98572.13;4912719;29;9018;-76
2021/06/04 04:18:42;;;;;;;;;4.20;4.20;;;;;35.47;45.21;98580.47;4911477;29;8875;-75
2021/06/04 04:21:13;;;;;;;;;4.00;4.00;;;;;35.46;44.78;98571.47;4911768;29;8910;-73
2021/06/04 04:23:49;;;;;;;;;4.60;4.60;;;;;35.60;44.91;98579.25;4912168;29;8858;-74
2021/06/04 04:26:21;;;;;;;;;4.60;4.60;;;;;35.70;44.14;98573.88;4910466;29;8870;-75
2021/06/04 04:28:52;;;;;;;;;4.00;4.00;;;;;35.79;43.89;98563.00;4909859;29;9349;-74
2021/06/04 04:31:24;;;;;;;;;4.20;4.20;;;;;35.89;43.59;98564.66;4912235;29;8982;-73
2021/06/04 04:33:54;;;;;;;;;4.40;4.40;;;;;35.98;44.50;98553.78;4912264;29;8904;-76
2021/06/04 04:36:32;;;;;;;;;3.60;3.60;;;;;36.07;43.29;98556.63;4912627;29;9709;-74
2021/06/04 04:39:01;;;;;;;;;4.00;4.00;;;;;36.01;43.34;98541.16;4913804;29;8922;-76
2021/06/04 04:41:31;;;;;;;;;3.60;3.60;;;;;36.17;43.70;98543.75;4912107;29;8879;-73
2021/06/04 04:44:01;;;;;;;;;4.80;4.80;;;;;36.23;42.76;98550.97;4912379;29;8899;-73
2021/06/04 04:46:31;;;;;;;;;4.80;4.80;;;;;36.29;42.86;98540.22;4910597;29;8938;-73
2021/06/04 04:49:01;;;;;;;;;4.80;4.80;;;;;36.35;42.91;98537.69;4911476;29;8909;-73
2021/06/04 04:51:33;;;;;;;;;5.60;5.60;;;;;36.43;43.04;98538.94;4910914;29;8962;-72
2021/06/04 04:54:09;;;;;;;;;4.80;4.80;;;;;36.43;43.38;98514.97;4910440;29;8877;-72
2021/06/04 04:56:40;;;;;;;;;6.60;6.60;;;;;36.61;43.20;98536.31;4911028;29;8871;-72
2021/06/04 04:59:11;;;;;;;;;4.60;4.60;;;;;36.70;42.11;98527.38;4908944;29;8835;-73
2021/06/04 05:01:40;;;;;;;;;7.00;7.00;;;;;36.80;42.43;98531.75;4910575;29;8882;-71
2021/06/04 05:04:09;;;;;;;;;5.00;5.00;;;;;36.83;41.93;98520.63;4910319;29;8851;-73
2021/06/04 05:06:38;;;;;;;;;4.00;4.00;;;;;36.88;42.59;98513.78;4910103;29;8961;-72
2021/06/04 05:09:08;;;;;;;;;4.00;4.00;;;;;36.91;41.87;98513.66;4910289;29;8989;-72
2021/06/04 05:11:37;;;;;;;;;3.60;3.60;;;;;36.91;42.06;98510.13;4912620;29;8847;-73
2021/06/04 05:14:06;;;;;;;;;6.00;4.40;;;;;36.92;42.18;98501.44;4913953;29;8894;-74
2021/06/04 05:16:35;;;;;;;;;5.80;5.80;;;;;36.99;41.99;98503.16;4912077;29;8855;-73
2021/06/04 05:19:05;;;;;;;;;4.00;4.00;;;;;37.10;41.08;98500.00;4913586;29;8866;-73
2021/06/04 05:21:35;;;;;;;;;3.20;3.20;;;;;37.13;42.20;98494.34;4912006;29;8901;-75
2021/06/04 05:24:08;;;;;;;;;3.60;3.60;;;;;37.22;41.29;98485.41;4913447;29;8859;-75
2021/06/04 05:26:39;;;;;;;;;4.40;4.40;;;;;37.34;41.47;98490.03;4912139;29;8937;-74
2021/06/04 05:29:08;;;;;;;;;3.20;3.20;;;;;37.44;41.06;98477.84;4913359;29;8855;-77
2021/06/04 05:31:39;;;;;;;;;4.20;4.20;;;;;37.54;42.01;98473.91;4914155;29;8858;-75
2021/06/04 05:34:09;;;;;;;;;3.80;3.80;;;;;37.59;40.57;98463.50;4914987;29;8862;-74
2021/06/04 05:36:39;;;;;;;;;4.00;4.00;;;;;37.60;40.00;98454.03;4913405;29;8985;-76
2021/06/04 05:39:19;;;;;;;;;3.80;3.80;;;;;37.72;41.27;98453.13;4912679;29;8899;-76
2021/06/04 05:41:53;;;;;;;;;3.40;3.00;;;;;37.76;41.93;98449.00;4912105;29;9542;-75
2021/06/04 05:44:24;;;;;;;;;4.60;4.60;;;;;37.68;39.81;98439.56;4913684;29;8938;-75
2021/06/04 05:46:57;;;;;;;;;3.60;3.60;;;;;37.76;39.96;98440.75;4914281;29;9073;-75
2021/06/04 05:49:27;;;;;;;;;4.20;4.20;;;;;37.87;39.66;98434.78;4913896;29;9654;-75
2021/06/04 05:51:58;;;;;;;;;2.00;2.00;;;;;37.95;39.12;98422.25;4913879;29;8878;-76
2021/06/04 05:54:28;;;;;;;;;4.00;4.00;;;;;38.01;38.97;98412.16;4914869;29;8854;-77
2021/06/04 05:57:18;;;;;;;;;2.80;2.80;;;;;38.23;39.22;98425.78;4915610;29;8885;-79
2021/06/04 05:59:49;;;;;;;;;2.80;2.80;;;;;38.34;39.33;98415.06;4915691;29;9632;-77
2021/06/04 06:02:20;;;;;;;;;2.00;2.00;;;;;38.38;40.08;98401.13;4915567;29;8981;-78
2021/06/04 06:04:48;;;;;;;;;3.20;3.20;;;;;38.42;39.96;98396.97;4916306;29;9772;-77
2021/06/04 06:07:17;;;;;;;;;2.00;2.00;;;;;38.39;38.26;98399.88;4915195;29;8866;-76
2021/06/04 06:09:46;;;;;;;;;4.00;4.00;;;;;38.32;38.52;98383.69;4916098;29;8990;-75
2021/06/04 06:12:15;;;;;;;;;4.20;4.20;;;;;38.26;38.05;98377.25;4911695;29;8850;-74
2021/06/04 06:14:44;;;;;;;;;3.00;3.00;;;;;38.17;40.94;98362.28;4897449;29;8897;-74
2021/06/04 06:17:13;;;;;;;;;3.40;3.40;;;;;38.17;39.44;98372.53;4897417;29;8862;-74
2021/06/04 06:19:42;;;;;;;;;3.40;3.40;;;;;38.12;39.70;98368.38;4897108;29;9615;-74
2021/06/04 06:22:12;;;;;;;;;4.20;4.20;;;;;38.14;40.07;98360.44;4896426;29;8895;-74
2021/06/04 06:24:41;;;;;;;;;3.80;3.80;;;;;38.17;40.19;98351.25;4897258;29;8868;-74
2021/06/04 06:27:11;;;;;;;;;4.20;4.20;;;;;38.18;39.75;98343.75;4897336;29;8992;-74
2021/06/04 06:29:39;;;;;;;;;5.80;4.80;;;;;38.34;39.31;98345.41;4897415;29;8873;-75
2021/06/04 06:32:11;;;;;;;;;3.60;3.60;;;;;38.40;38.72;98327.00;4897167;29;8877;-75
2021/06/04 06:34:40;;;;;;;;;4.00;4.00;;;;;38.56;39.35;98323.13;4898885;29;8865;-75
2021/06/04 06:37:09;;;;;;;;;3.20;3.20;;;;;38.65;38.01;98317.59;4916171;29;8887;-74
2021/06/04 06:39:38;;;;;;;;;3.80;3.80;;;;;38.73;39.08;98308.53;4913580;29;8862;-73
2021/06/04 06:42:09;;;;;;;;;3.00;3.00;;;;;38.66;38.12;98284.06;4915148;29;8847;-74
2021/06/04 06:44:38;;;;;;;;;4.00;4.00;;;;;38.86;38.30;98297.28;4913247;29;8867;-77
2021/06/04 06:47:07;;;;;;;;;4.00;4.00;;;;;38.93;38.81;98285.13;4915882;29;8984;-75
2021/06/04 06:49:36;;;;;;;;;2.40;2.40;;;;;38.93;38.07;98271.34;4914387;29;8855;-78
2021/06/04 06:52:09;;;;;;;;;4.20;4.20;;;;;39.09;38.97;98276.44;4911170;29;8866;-75
2021/06/04 06:54:41;;;;;;;;;3.20;3.20;;;;;39.25;38.26;98275.25;4914430;29;8930;-75
2021/06/04 06:57:10;;;;;;;;;3.00;3.00;;;;;39.37;38.00;98275.00;4914934;29;8954;-73
2021/06/04 06:59:39;;;;;;;;;2.60;2.60;;;;;39.44;37.11;98265.59;4914703;29;8866;-73
2021/06/04 07:02:11;;;;;;;;;4.00;4.00;;;;;39.57;38.25;98262.59;4913744;29;8894;-74
2021/06/04 07:04:40;;;;;;;;;4.00;4.00;;;;;39.65;38.31;98247.94;4914232;29;9658;-74
2021/06/04 07:07:09;;;;;;;;;3.20;3.20;;;;;39.67;38.30;98253.75;4911692;29;8855;-75
2021/06/04 07:09:39;;;;;;;;;4.20;4.20;;;;;39.58;36.89;98240.03;4914355;29;8859;-76
2021/06/04 07:12:08;;;;;;;;;4.40;4.40;;;;;39.49;36.81;98237.38;4914394;29;8879;-78
2021/06/04 07:14:39;;;;;;;;;4.00;4.00;;;;;39.35;36.91;98232.56;4911209;29;8862;-79
2021/06/04 07:17:08;;;;;;;;;2.00;2.00;;;;;39.11;37.70;98225.09;4913511;29;8941;-75
2021/06/04 07:19:37;;;;;;;;;3.00;3.00;;;;;39.04;36.79;98225.44;4913446;29;9621;-78
2021/06/04 07:22:06;;;;;;;;;2.80;2.80;;;;;38.94;39.37;98226.00;4913316;29;8902;-76
2021/06/04 07:24:35;;;;;;;;;6.20;4.00;;;;;38.76;39.21;98213.84;4908519;29;8859;-73
2021/06/04 07:27:05;;;;;;;;;2.80;2.80;;;;;38.70;37.75;98204.69;4910817;29;8890;-74
2021/06/04 07:29:34;;;;;;;;;2.60;2.60;;;;;38.49;37.91;98181.69;4912458;29;10014;-74
2021/06/04 07:32:04;;;;;;;;;5.80;5.80;;;;;38.57;39.19;98203.38;4912805;29;8871;-74
2021/06/04 07:34:34;;;;;;;;;3.60;3.60;;;;;38.54;38.41;98196.81;4912868;29;8891;-76
2021/06/04 07:37:04;;;;;;;;;3.60;3.60;;;;;38.44;38.80;98198.84;4913412;29;8917;-76
2021/06/04 07:39:35;;;;;;;;;4.00;4.00;;;;;38.45;38.43;98200.38;4913080;29;8859;-74
2021/06/04 07:42:09;;;;;;;;;4.00;4.00;;;;;38.48;38.24;98195.94;4913478;29;8874;-77
2021/06/04 07:44:39;;;;;;;;;4.20;4.20;;;;;38.51;39.64;98200.50;4912348;29;8877;-76
2021/06/04 07:47:09;;;;;;;;;4.60;4.60;;;;;38.49;39.22;98195.47;4912157;29;9637;-76
2021/06/04 07:49:38;;;;;;;;;2.60;2.60;;;;;38.39;38.50;98179.44;4912188;29;8859;-76
2021/06/04 07:52:09;;;;;;;;;4.80;4.80;;;;;38.31;37.92;98186.53;4911111;29;8977;-76
2021/06/04 07:54:41;;;;;;;;;5.00;5.00;;;;;38.22;38.63;98186.56;4911265;29;8964;-76
2021/06/04 07:57:10;;;;;;;;;3.80;3.80;;;;;38.16;38.01;98181.69;4913533;29;8983;-77
2021/06/04 07:59:39;;;;;;;;;2.80;2.80;;;;;38.13;38.36;98176.34;4912926;29;8950;-78
2021/06/04 08:02:09;;;;;;;;;3.00;3.00;;;;;38.10;38.38;98177.28;4911024;29;8859;-76
2021/06/04 08:04:52;;;;;;;;;3.00;3.00;;;;;38.09;37.93;98156.47;4911437;29;8991;-78
2021/06/04 08:07:22;;;;;;;;;4.80;4.80;;;;;38.15;40.25;98144.38;4912863;29;8839;-76
2021/06/04 08:09:51;;;;;;;;;3.20;3.20;;;;;38.23;39.97;98136.53;4910877;29;8859;-76
2021/06/04 08:12:30;;;;;;;;;3.20;3.20;;;;;38.17;38.82;98130.91;4912695;29;8871;-75
2021/06/04 08:15:08;;;;;;;;;3.60;3.60;;;;;38.15;38.65;98130.59;4911395;29;8858;-76
2021/06/04 08:17:37;;;;;;;;;4.80;4.80;;;;;38.17;38.26;98130.91;4912997;29;8905;-77
2021/06/04 08:20:10;;;;;;;;;5.60;5.60;;;;;38.19;38.81;98133.94;4913412;29;9569;-77
2021/06/04 08:22:43;;;;;;;;;3.20;3.20;;;;;38.23;38.26;98139.28;4912464;29;8866;-78
2021/06/04 08:25:15;;;;;;;;;5.00;5.00;;;;;38.22;38.44;98134.25;4909585;29;8963;-77
2021/06/04 08:27:45;;;;;;;;;4.20;4.20;;;;;38.30;37.75;98138.94;4925073;29;9730;-76
2021/06/04 08:30:15;;;;;;;;;4.60;4.60;;;;;38.32;37.69;98138.47;4910759;29;8898;-78
2021/06/04 08:32:45;;;;;;;;;3.00;3.00;;;;;38.31;38.55;98143.22;4911579;29;8860;-76
2021/06/04 08:35:15;;;;;;;;;4.60;4.60;;;;;38.28;38.25;98143.38;4911681;29;8887;-76
2021/06/04 08:37:45;;;;;;;;;4.60;4.00;;;;;38.27;37.88;98152.88;4912264;29;8861;-77
2021/06/04 08:40:22;;;;;;;;;5.60;5.60;;;;;38.16;38.58;98134.88;4912294;29;8855;-78
2021/06/04 08:43:10;;;;;;;;;3.20;3.20;;;;;38.12;40.06;98142.53;4905100;29;8990;-78
2021/06/04 08:46:13;;;;;;;;;4.80;4.80;;;;;37.92;38.09;98153.31;4905243;29;9011;-75
2021/06/04 08:48:53;;;;;;;;;2.80;2.80;;;;;37.76;39.66;98170.22;4929854;29;8887;-77
2021/06/04 08:51:38;;;;;;;;;3.00;3.00;;;;;37.62;39.41;98160.63;4912852;29;8874;-75
2021/06/04 08:54:39;;;;;;;;;3.00;3.00;;;;;37.55;39.50;98161.69;4917151;29;8871;-75
2021/06/04 08:57:32;;;;;;;;;5.00;5.00;;;;;37.41;40.20;98173.34;4915748;29;8827;-78
2021/06/04 09:00:04;;;;;;;;;5.00;5.00;;;;;37.22;40.42;98178.13;4915705;29;8862;-78
2021/06/04 09:02:48;;;;;;;;;6.40;6.40;;;;;37.05;41.08;98184.34;4914585;29;8881;-77
2021/06/04 09:05:43;;;;;;;;;4.40;4.40;;;;;36.93;41.01;98175.03;4914292;29;8946;-75
2021/06/04 09:08:20;;;;;;;;;4.20;4.20;;;;;36.78;40.53;98183.13;4913945;29;8887;-78
2021/06/04 09:11:01;;;;;;;;;3.00;3.00;;;;;36.49;40.67;98186.25;4916595;29;8850;-76
2021/06/04 09:13:36;;;;;;;;;5.60;5.60;;;;;36.36;40.86;98188.38;4916274;29;8862;-77
2021/06/04 09:16:18;;;;;;;;;3.60;3.60;;;;;36.15;41.26;98197.44;4914852;29;8878;-76
2021/06/04 09:18:55;;;;;;;;;4.00;4.00;;;;;35.96;42.44;98191.09;4914374;29;8871;-79
2021/06/04 09:21:44;;;;;;;;;1.20;1.20;;;;;35.59;44.25;98190.88;4914372;29;9684;-75
2021/06/04 09:24:19;;;;;;;;;6.00;6.00;;;;;35.01;43.45;98185.13;4916029;29;9593;-76
2021/06/04 09:26:48;;;;;;;;;2.20;2.20;;;;;34.33;45.96;98209.22;4915308;29;8907;-76
2021/06/04 09:29:25;;;;;;;;;3.60;2.80;;;;;33.83;46.85;98212.66;4915793;29;9601;-75
2021/06/04 09:31:58;;;;;;;;;1.40;1.40;;;;;33.28;47.90;98194.66;4916540;29;8831;-74
2021/06/04 09:34:33;;;;;;;;;1.60;1.60;;;;;32.94;46.63;98174.06;4917610;29;8847;-76
2021/06/04 09:37:18;;;;;;;;;1.20;1.20;;;;;32.71;48.36;98187.91;4915165;29;8897;-75
2021/06/04 09:40:27;;;;;;;;;1.60;1.60;;;;;32.49;48.62;98200.56;4915413;29;8898;-76
2021/06/04 09:43:07;;;;;;;;;5.00;5.00;;;;;32.30;48.20;98229.47;4914410;29;9019;-75
2021/06/04 09:45:42;;;;;;;;;5.60;5.60;;;;;32.04;49.05;98253.78;4914199;29;8886;-77
2021/06/04 09:48:21;;;;;;;;;4.40;4.40;;;;;31.66;49.83;98200.75;4916714;29;8839;-76
2021/06/04 09:50:50;;;;;;;;;4.00;4.00;;;;;31.58;53.00;98219.22;4916591;29;8879;-74
2021/06/04 09:53:26;;;;;;;;;3.60;3.60;;;;;31.46;52.64;98211.66;4914506;29;8886;-73
2021/06/04 09:56:13;;;;;;;;;6.40;6.40;;;;;31.39;52.57;98206.34;4915799;29;8823;-74
2021/06/04 09:58:56;;;;;;;;;3.20;3.20;;;;;31.32;51.18;98195.59;4914575;29;8874;-75
2021/06/04 10:01:29;;;;;;;;;3.60;3.60;;;;;31.19;53.26;98208.31;4914618;29;8868;-75
2021/06/04 10:04:04;;;;;;;;;1.80;1.80;;;;;31.04;55.03;98203.09;4915727;29;8866;-74
2021/06/04 10:06:42;;;;;;;;;2.20;2.20;;;;;30.87;54.22;98208.84;4915104;29;8966;-77
2021/06/04 10:09:25;;;;;;;;;2.40;2.40;;;;;30.79;52.49;98219.09;4917448;29;8926;-78
2021/06/04 10:11:59;;;;;;;;;4.20;4.20;;;;;30.67;52.91;98211.50;4917737;29;8850;-76
2021/06/04 10:14:48;;;;;;;;;5.20;4.40;;;;;30.65;52.68;98232.94;4915044;29;8839;-77
2021/06/04 10:17:45;;;;;;;;;5.60;5.60;;;;;30.58;55.59;98231.09;4915186;29;8843;-77
2021/06/04 10:20:46;;;;;;;;;3.20;3.20;;;;;30.56;52.76;98238.09;4913983;29;8942;-77
2021/06/04 10:23:37;;;;;;;;;6.75;5.75;;;;;30.54;55.88;98240.47;4913693;29;8847;-77
2021/06/04 10:26:31;;;;;;;;;2.00;2.00;;;;;30.49;54.53;98226.13;4915123;29;8981;-75
2021/06/04 10:29:16;;;;;;;;;3.20;3.20;;;;;30.47;54.53;98222.28;4915282;29;8855;-75
2021/06/04 10:32:02;;;;;;;;;3.80;3.80;;;;;30.56;52.58;98221.75;4914182;29;8847;-75
2021/06/04 10:35:03;;;;;;;;;1.80;1.80;;;;;30.58;53.05;98230.31;4914298;29;8899;-74
2021/06/04 10:37:43;;;;;;;;;1.80;1.80;;;;;30.63;53.37;98233.34;4914949;29;8854;-73
2021/06/04 10:40:35;;;;;;;;;1.40;1.40;;;;;30.72;54.34;98235.53;4914170;29;8974;-77
2021/06/04 10:43:35;;;;;;;;;0.80;0.80;;;;;30.66;53.20;98229.78;4913995;29;8906;-74
2021/06/04 10:46:33;;;;;;;;;0.60;0.60;;;;;30.73;53.80;98240.56;4911064;29;8875;-74
2021/06/04 10:49:27;;;;;;;;;1.00;1.00;;;;;30.78;53.11;98244.78;4915157;29;8866;-74
2021/06/04 10:52:17;;;;;;;;;0.80;0.80;;;;;30.81;52.02;98252.13;4914686;29;8869;-74
2021/06/04 10:55:12;;;;;;;;;0.00;0.00;;;;;30.85;51.48;98238.44;4913723;29;8867;-74
2021/06/04 10:58:07;;;;;;;;;0.00;0.00;;;;;30.90;50.98;98246.91;4915622;29;8933;-74
2021/06/04 11:00:44;;;;;;;;;1.60;1.60;;;;;30.98;51.69;98255.75;4914914;29;9577;-75
2021/06/04 11:03:22;;;;;;;;;1.80;1.80;;;;;31.02;52.06;98253.72;4916061;29;8867;-76
2021/06/04 11:06:21;;;;;;;;;0.00;0.00;;;;;31.04;54.64;98263.03;4914929;29;8843;-76
2021/06/04 11:09:14;;;;;;;;;2.00;2.00;;;;;31.03;53.04;98253.31;4912679;29;9629;-75
2021/06/04 11:12:15;;;;;;;;;2.00;2.00;;;;;31.01;52.23;98235.84;4914844;29;8886;-75
2021/06/04 11:15:02;;;;;;;;;2.60;2.60;;;;;30.99;51.79;98238.97;4913174;29;8874;-75
2021/06/04 11:17:44;;;;;;;;;2.40;2.40;;;;;31.03;52.20;98247.09;4913496;29;8898;-75
2021/06/04 11:20:28;;;;;;;;;1.00;1.00;;;;;31.02;51.18;98224.53;4914123;29;9647;-75
2021/06/04 11:23:23;;;;;;;;;4.00;4.00;;;;;31.05;52.44;98226.44;4913621;29;8871;-74
2021/06/04 11:26:05;;;;;;;;;2.60;2.60;;;;;31.26;51.94;98244.34;4912566;29;9581;-75
2021/06/04 11:29:08;;;;;;;;;1.60;1.60;;;;;31.39;50.00;98248.00;4912351;29;8911;-75
2021/06/04 11:32:17;;;;;;;;;3.75;3.75;;;;;31.51;51.39;98254.81;4912055;29;8847;-76
2021/06/04 11:35:01;;;;;;;;;2.60;2.60;;;;;31.58;50.88;98257.38;4914345;29;8859;-74
2021/06/04 11:38:04;;;;;;;;;6.50;5.00;;;;;31.73;51.04;98269.59;4912577;29;8862;-75
2021/06/04 11:40:43;;;;;;;;;5.60;5.60;;;;;31.76;50.91;98281.63;4909485;29;8893;-76
2021/06/04 11:43:33;;;;;;;;;5.80;5.80;;;;;31.85;52.33;98286.50;4911834;29;8854;-75
2021/06/04 11:46:18;;;;;;;;;6.00;6.00;;;;;31.83;52.41;98284.22;4910313;29;9637;-73
2021/06/04 11:49:20;;;;;;;;;5.00;5.00;;;;;31.79;50.45;98284.28;4911341;29;8850;-75
2021/06/04 11:51:52;;;;;;;;;5.00;5.00;;;;;31.78;49.65;98284.69;4905428;29;8858;-75
2021/06/04 11:54:35;;;;;;;;;6.00;6.00;;;;;31.70;49.81;98294.19;4893757;29;8942;-76
2021/06/04 11:57:46;;;;;;;;;4.80;4.80;;;;;31.64;49.84;98299.34;4895572;29;8929;-76
2021/06/04 12:00:37;;;;;;;;;7.75;7.75;;;;;31.56;49.98;98313.53;4895872;29;8932;-76
2021/06/04 12:03:27;;;;;;;;;5.00;5.00;;;;;31.35;50.02;98290.13;4911725;29;8859;-77
2021/06/04 12:06:17;;;;;;;;;4.20;4.20;;;;;31.46;49.89;98298.91;4912058;29;8875;-77
2021/06/04 12:08:47;;;;;;;;;4.40;4.40;;;;;31.44;51.40;98295.81;4911367;29;8851;-75
2021/06/04 12:11:35;;;;;;;;;4.80;4.80;;;;;31.54;51.46;98303.03;4913880;29;8949;-78
2021/06/04 12:14:15;;;;;;;;;5.80;5.80;;;;;31.55;50.11;98320.94;4914149;29;8909;-75
2021/06/04 12:17:05;;;;;;;;;3.00;3.00;;;;;31.55;50.16;98331.84;4914657;29;8890;-76
2021/06/04 12:19:37;;;;;;;;;3.80;3.80;;;;;31.53;50.45;98336.94;4911826;29;9569;-76
2021/06/04 12:22:39;;;;;;;;;4.00;4.00;;;;;31.55;50.02;98341.97;4914597;29;8877;-76
2021/06/04 12:25:10;;;;;;;;;4.20;4.20;;;;;31.58;49.74;98344.63;4914532;29;8866;-76
2021/06/04 12:28:02;;;;;;;;;3.00;3.00;;;;;31.60;49.85;98355.13;4914988;29;8870;-75
2021/06/04 12:31:02;;;;;;;;;3.40;3.40;;;;;31.54;49.85;98352.09;4914606;29;9712;-75